TFV009 ESSA-GMMX
Flight info
| Callsign | TFV009 |
|---|---|
| Flight time | N/A |
| Altitude | 36000 |
| Route | PETEV N872 ELPAX DCT AMRAK DCT SISGA/N0439F350 DCT KOVIN/N0440F370 DCT DUCRA UM728 RESMI UN857 DISAK DCT ARKIP DCT ARNAV DCT LMG DCT UVELI DCT OSMOB DCT ARVID DCT PPN DCT NOLSA DCT ALEPO DCT VASUM N10 CJN L27 BLN DCT MGA DCT PIMOS DCT GALTO UN869 SLK UW900 TIXAL UG850 OBOGA |
| Aircraft | B738/M-SDE2E3FGHIRWXY/LB1 |
Departure
| Time | N/A |
|---|---|
| Airport | Stockholm-Arlanda Airport (ESSA) |
Arrival
| Time | 2026-05-01 13:55 |
|---|---|
| Airport | Marrakesh Menara Airport (GMMX) |
| Time | Latitude | Longitude | Altitude | Speed | Heading |
|---|---|---|---|---|---|
| 2026-05-01 10:02 | 55.56582 | 10.88842 | 35418 ft | 472 kts | 221° |
| 2026-05-01 10:02 | 55.54131 | 10.84989 | 35421 ft | 472 kts | 221° |
| 2026-05-01 10:02 | 55.49228 | 10.77301 | 35422 ft | 471 kts | 221° |
| 2026-05-01 10:03 | 55.44326 | 10.69644 | 35425 ft | 470 kts | 221° |
| 2026-05-01 10:03 | 55.39426 | 10.62014 | 35427 ft | 470 kts | 221° |
| 2026-05-01 10:04 | 55.34531 | 10.54419 | 35423 ft | 469 kts | 221° |
| 2026-05-01 10:04 | 55.29635 | 10.46849 | 35420 ft | 469 kts | 221° |
| 2026-05-01 10:05 | 55.24731 | 10.39291 | 35434 ft | 469 kts | 221° |
| 2026-05-01 10:05 | 55.19819 | 10.31747 | 35426 ft | 470 kts | 221° |
| 2026-05-01 10:06 | 55.14898 | 10.24215 | 35424 ft | 470 kts | 221° |
| 2026-05-01 10:06 | 55.09969 | 10.16697 | 35438 ft | 470 kts | 221° |
| 2026-05-01 10:07 | 55.05042 | 10.09207 | 35425 ft | 469 kts | 221° |
| 2026-05-01 10:07 | 55.00119 | 10.01748 | 35427 ft | 469 kts | 220° |
| 2026-05-01 10:08 | 54.92737 | 9.90609 | 35428 ft | 468 kts | 220° |
| 2026-05-01 10:09 | 54.87815 | 9.83212 | 35428 ft | 468 kts | 220° |
| 2026-05-01 10:09 | 54.82886 | 9.75828 | 35419 ft | 468 kts | 220° |
| 2026-05-01 10:10 | 54.77987 | 9.68388 | 35423 ft | 469 kts | 221° |
| 2026-05-01 10:10 | 54.70681 | 9.57124 | 35423 ft | 469 kts | 221° |
| 2026-05-01 10:11 | 54.65828 | 9.49684 | 35426 ft | 469 kts | 221° |
| 2026-05-01 10:11 | 54.60931 | 9.42217 | 35426 ft | 470 kts | 221° |
| 2026-05-01 10:12 | 54.56821 | 9.35973 | 35415 ft | 470 kts | 221° |
| 2026-05-01 10:13 | 54.48655 | 9.23621 | 35412 ft | 470 kts | 221° |
| 2026-05-01 10:13 | 54.44566 | 9.17462 | 35417 ft | 470 kts | 221° |
| 2026-05-01 10:14 | 54.37179 | 9.06368 | 35412 ft | 471 kts | 221° |
| 2026-05-01 10:14 | 54.32240 | 8.98991 | 35420 ft | 471 kts | 221° |
| 2026-05-01 10:15 | 54.27292 | 8.91628 | 35415 ft | 472 kts | 221° |
| 2026-05-01 10:15 | 54.22335 | 8.84269 | 35418 ft | 472 kts | 221° |
| 2026-05-01 10:16 | 54.17372 | 8.76924 | 35421 ft | 472 kts | 221° |
| 2026-05-01 10:17 | 54.09922 | 8.65946 | 35413 ft | 472 kts | 221° |
| 2026-05-01 10:17 | 54.02464 | 8.55010 | 35407 ft | 472 kts | 221° |
| 2026-05-01 10:18 | 53.94991 | 8.44106 | 35406 ft | 472 kts | 221° |
| 2026-05-01 10:19 | 53.90008 | 8.36859 | 35409 ft | 472 kts | 221° |
| 2026-05-01 10:19 | 53.85020 | 8.29637 | 35400 ft | 471 kts | 221° |
| 2026-05-01 10:20 | 53.77543 | 8.18853 | 35399 ft | 471 kts | 221° |
| 2026-05-01 10:20 | 53.72558 | 8.11690 | 35388 ft | 471 kts | 221° |
| 2026-05-01 10:21 | 53.65088 | 8.01005 | 35380 ft | 472 kts | 221° |
| 2026-05-01 10:22 | 53.57559 | 7.90272 | 35383 ft | 473 kts | 221° |
| 2026-05-01 10:23 | 53.49997 | 7.79558 | 35379 ft | 474 kts | 220° |
| 2026-05-01 10:23 | 53.42425 | 7.68884 | 35376 ft | 473 kts | 220° |
| 2026-05-01 10:24 | 53.32342 | 7.54740 | 35369 ft | 472 kts | 221° |
| 2026-05-01 10:25 | 53.22258 | 7.40692 | 35371 ft | 472 kts | 220° |
| 2026-05-01 10:26 | 53.17220 | 7.33705 | 35363 ft | 471 kts | 220° |
| 2026-05-01 10:27 | 53.07164 | 7.19814 | 35374 ft | 471 kts | 221° |
| 2026-05-01 10:28 | 52.99547 | 7.09360 | 35361 ft | 471 kts | 220° |
| 2026-05-01 10:28 | 52.92006 | 6.99055 | 35360 ft | 469 kts | 220° |
| 2026-05-01 10:29 | 52.84442 | 6.88764 | 35361 ft | 469 kts | 220° |
| 2026-05-01 10:30 | 52.74353 | 6.75119 | 35349 ft | 469 kts | 220° |
| 2026-05-01 10:31 | 52.64242 | 6.61538 | 35340 ft | 469 kts | 220° |
| 2026-05-01 10:32 | 52.56646 | 6.51368 | 35342 ft | 469 kts | 219° |
| 2026-05-01 10:33 | 52.46528 | 6.37913 | 35330 ft | 466 kts | 219° |
| 2026-05-01 10:34 | 52.39006 | 6.27963 | 35326 ft | 465 kts | 219° |
| 2026-05-01 10:34 | 52.33980 | 6.21338 | 35331 ft | 464 kts | 219° |
| 2026-05-01 10:35 | 52.26446 | 6.11447 | 35319 ft | 463 kts | 219° |
| 2026-05-01 10:35 | 52.21428 | 6.04883 | 35320 ft | 462 kts | 219° |
| 2026-05-01 10:36 | 52.13892 | 5.95061 | 35322 ft | 462 kts | 219° |
| 2026-05-01 10:37 | 52.08866 | 5.88535 | 35324 ft | 462 kts | 218° |
| 2026-05-01 10:37 | 52.01367 | 5.78834 | 35307 ft | 461 kts | 218° |
| 2026-05-01 10:38 | 51.96353 | 5.72372 | 35313 ft | 460 kts | 218° |
| 2026-05-01 10:38 | 51.91340 | 5.65930 | 35305 ft | 460 kts | 218° |
| 2026-05-01 10:39 | 51.86332 | 5.59513 | 35293 ft | 459 kts | 218° |
| 2026-05-01 10:39 | 51.81325 | 5.53117 | 35299 ft | 459 kts | 218° |
| 2026-05-01 10:40 | 51.76313 | 5.46732 | 35298 ft | 459 kts | 218° |
| 2026-05-01 10:40 | 51.71301 | 5.40366 | 35284 ft | 459 kts | 218° |
| 2026-05-01 10:41 | 51.66285 | 5.34012 | 35291 ft | 459 kts | 218° |
| 2026-05-01 10:42 | 51.58759 | 5.24515 | 35288 ft | 457 kts | 217° |
| 2026-05-01 10:42 | 51.53761 | 5.18231 | 35294 ft | 455 kts | 217° |
| 2026-05-01 10:43 | 51.48769 | 5.11971 | 35290 ft | 455 kts | 217° |
| 2026-05-01 10:43 | 51.43785 | 5.05740 | 35283 ft | 455 kts | 217° |
| 2026-05-01 10:44 | 51.38789 | 4.99514 | 35293 ft | 455 kts | 217° |
| 2026-05-01 10:44 | 51.33824 | 4.93341 | 35284 ft | 455 kts | 217° |
| 2026-05-01 10:45 | 51.28821 | 4.87137 | 35281 ft | 456 kts | 217° |
| 2026-05-01 10:45 | 51.23805 | 4.80937 | 35288 ft | 456 kts | 217° |
| 2026-05-01 10:46 | 51.18790 | 4.74756 | 35285 ft | 455 kts | 217° |
| 2026-05-01 10:46 | 51.13773 | 4.68589 | 35284 ft | 455 kts | 217° |
| 2026-05-01 10:47 | 51.08763 | 4.62448 | 35292 ft | 454 kts | 217° |
| 2026-05-01 10:47 | 51.03761 | 4.56334 | 35291 ft | 454 kts | 216° |
| 2026-05-01 10:48 | 50.98754 | 4.50232 | 35293 ft | 453 kts | 217° |
| 2026-05-01 10:48 | 50.93751 | 4.44151 | 35291 ft | 453 kts | 216° |
| 2026-05-01 10:49 | 50.88748 | 4.38086 | 35298 ft | 453 kts | 216° |
| 2026-05-01 10:49 | 50.83730 | 4.32021 | 35291 ft | 453 kts | 216° |
| 2026-05-01 10:50 | 50.78750 | 4.26017 | 35286 ft | 453 kts | 216° |
| 2026-05-01 10:50 | 50.73728 | 4.19979 | 35281 ft | 454 kts | 216° |
| 2026-05-01 10:51 | 50.68699 | 4.13948 | 35275 ft | 454 kts | 216° |
| 2026-05-01 10:51 | 50.63665 | 4.07928 | 35261 ft | 455 kts | 216° |
| 2026-05-01 10:52 | 50.58390 | 4.02493 | 35272 ft | 453 kts | 208° |
| 2026-05-01 10:52 | 50.52828 | 3.97809 | 35266 ft | 453 kts | 206° |
| 2026-05-01 10:53 | 50.47262 | 3.93162 | 35263 ft | 453 kts | 207° |
| 2026-05-01 10:53 | 50.41713 | 3.88460 | 35268 ft | 453 kts | 207° |
| 2026-05-01 10:54 | 50.36169 | 3.83732 | 35260 ft | 453 kts | 207° |
| 2026-05-01 10:54 | 50.30634 | 3.79014 | 35259 ft | 453 kts | 207° |
| 2026-05-01 10:55 | 50.25094 | 3.74307 | 35260 ft | 453 kts | 207° |
| 2026-05-01 10:55 | 50.19561 | 3.69621 | 35261 ft | 452 kts | 207° |
| 2026-05-01 10:56 | 50.14028 | 3.64948 | 35265 ft | 452 kts | 207° |
| 2026-05-01 10:56 | 50.08506 | 3.60296 | 35259 ft | 451 kts | 206° |
| 2026-05-01 10:57 | 50.02986 | 3.55658 | 35252 ft | 450 kts | 206° |
| 2026-05-01 10:57 | 49.97472 | 3.51039 | 35256 ft | 450 kts | 206° |
| 2026-05-01 10:58 | 49.91962 | 3.46433 | 35252 ft | 449 kts | 206° |
| 2026-05-01 10:58 | 49.86497 | 3.41877 | 35253 ft | 449 kts | 206° |
| 2026-05-01 10:59 | 49.80992 | 3.37300 | 35247 ft | 449 kts | 206° |
| 2026-05-01 10:59 | 49.75493 | 3.32740 | 35241 ft | 449 kts | 206° |
| 2026-05-01 11:00 | 49.69988 | 3.28186 | 35254 ft | 448 kts | 206° |
| 2026-05-01 11:00 | 49.64492 | 3.23651 | 35241 ft | 448 kts | 206° |
| 2026-05-01 11:01 | 49.58991 | 3.19124 | 35238 ft | 448 kts | 206° |
| 2026-05-01 11:01 | 49.53499 | 3.14614 | 35240 ft | 447 kts | 206° |
| 2026-05-01 11:02 | 49.48016 | 3.10085 | 35250 ft | 448 kts | 207° |
| 2026-05-01 11:02 | 49.42776 | 3.04901 | 35240 ft | 448 kts | 211° |
| 2026-05-01 11:03 | 49.37615 | 2.99530 | 35227 ft | 448 kts | 211° |
| 2026-05-01 11:03 | 49.32449 | 2.94227 | 35236 ft | 447 kts | 210° |
| 2026-05-01 11:04 | 49.27265 | 2.88981 | 35233 ft | 447 kts | 210° |
| 2026-05-01 11:04 | 49.22069 | 2.83753 | 35238 ft | 446 kts | 210° |
| 2026-05-01 11:05 | 49.17756 | 2.79423 | 35239 ft | 446 kts | 210° |
| 2026-05-01 11:05 | 49.12564 | 2.74222 | 35236 ft | 446 kts | 210° |
| 2026-05-01 11:06 | 49.07371 | 2.69030 | 35239 ft | 446 kts | 210° |
| 2026-05-01 11:06 | 49.02178 | 2.63849 | 35259 ft | 446 kts | 209° |
| 2026-05-01 11:07 | 48.94370 | 2.56088 | 35245 ft | 447 kts | 209° |
| 2026-05-01 11:07 | 48.89152 | 2.50915 | 35240 ft | 448 kts | 209° |
| 2026-05-01 11:08 | 48.83930 | 2.45749 | 35238 ft | 448 kts | 209° |
| 2026-05-01 11:09 | 48.76096 | 2.38019 | 35242 ft | 448 kts | 209° |
| 2026-05-01 11:09 | 48.70864 | 2.32874 | 35239 ft | 448 kts | 209° |
| 2026-05-01 11:10 | 48.63045 | 2.25205 | 35241 ft | 448 kts | 209° |
| 2026-05-01 11:10 | 48.57980 | 2.20461 | 35229 ft | 446 kts | 202° |
| 2026-05-01 11:11 | 48.52218 | 2.17536 | 35238 ft | 438 kts | 188° |
| 2026-05-01 11:11 | 48.46248 | 2.15709 | 35222 ft | 438 kts | 189° |
| 2026-05-01 11:12 | 48.40267 | 2.13825 | 35237 ft | 440 kts | 188° |
| 2026-05-01 11:12 | 48.34272 | 2.11918 | 35227 ft | 441 kts | 188° |
| 2026-05-01 11:13 | 48.28233 | 2.10418 | 35228 ft | 438 kts | 179° |
| 2026-05-01 11:13 | 48.22216 | 2.11213 | 35241 ft | 434 kts | 169° |
| 2026-05-01 11:14 | 48.16232 | 2.12585 | 35237 ft | 436 kts | 170° |
| 2026-05-01 11:14 | 48.10140 | 2.12741 | 35238 ft | 442 kts | 185° |
| 2026-05-01 11:15 | 48.04030 | 2.11478 | 35234 ft | 444 kts | 185° |
| 2026-05-01 11:15 | 47.97898 | 2.10234 | 35238 ft | 445 kts | 185° |
| 2026-05-01 11:16 | 47.91742 | 2.09035 | 35243 ft | 447 kts | 185° |
| 2026-05-01 11:16 | 47.85561 | 2.07850 | 35248 ft | 448 kts | 185° |
| 2026-05-01 11:17 | 47.79367 | 2.06665 | 35230 ft | 449 kts | 185° |
| 2026-05-01 11:17 | 47.73162 | 2.05480 | 35233 ft | 451 kts | 186° |
| 2026-05-01 11:18 | 47.66976 | 2.04300 | 35239 ft | 452 kts | 186° |
| 2026-05-01 11:18 | 47.60830 | 2.02343 | 35221 ft | 455 kts | 199° |
| 2026-05-01 11:19 | 47.54958 | 1.98861 | 35228 ft | 456 kts | 201° |
| 2026-05-01 11:19 | 47.49068 | 1.95357 | 35231 ft | 457 kts | 201° |
| 2026-05-01 11:20 | 47.43155 | 1.91913 | 35233 ft | 457 kts | 200° |
| 2026-05-01 11:20 | 47.37228 | 1.88495 | 35237 ft | 457 kts | 200° |
| 2026-05-01 11:21 | 47.31299 | 1.85085 | 35235 ft | 457 kts | 201° |
| 2026-05-01 11:21 | 47.25374 | 1.81680 | 35246 ft | 457 kts | 201° |
| 2026-05-01 11:22 | 47.19438 | 1.78282 | 35240 ft | 457 kts | 201° |
| 2026-05-01 11:22 | 47.13499 | 1.74932 | 35240 ft | 457 kts | 202° |
| 2026-05-01 11:23 | 47.07595 | 1.71623 | 35243 ft | 457 kts | 202° |
| 2026-05-01 11:23 | 47.01656 | 1.68296 | 35245 ft | 457 kts | 202° |
| 2026-05-01 11:24 | 46.95718 | 1.64974 | 35237 ft | 457 kts | 202° |
| 2026-05-01 11:25 | 46.86818 | 1.60010 | 35243 ft | 457 kts | 203° |
| 2026-05-01 11:25 | 46.77898 | 1.55049 | 35239 ft | 458 kts | 203° |
| 2026-05-01 11:26 | 46.68967 | 1.50101 | 35241 ft | 458 kts | 203° |
| 2026-05-01 11:27 | 46.63011 | 1.46811 | 35240 ft | 458 kts | 203° |
| 2026-05-01 11:27 | 46.57047 | 1.43525 | 35234 ft | 458 kts | 203° |
| 2026-05-01 11:28 | 46.51083 | 1.40246 | 35228 ft | 458 kts | 204° |
| 2026-05-01 11:28 | 46.45117 | 1.36975 | 35233 ft | 458 kts | 204° |
| 2026-05-01 11:29 | 46.36198 | 1.32097 | 35242 ft | 456 kts | 204° |
| 2026-05-01 11:30 | 46.27303 | 1.27249 | 35234 ft | 455 kts | 204° |
| 2026-05-01 11:30 | 46.21380 | 1.24031 | 35250 ft | 454 kts | 204° |
| 2026-05-01 11:31 | 46.15462 | 1.20822 | 35230 ft | 454 kts | 203° |
| 2026-05-01 11:31 | 46.09550 | 1.17624 | 35247 ft | 454 kts | 203° |
| 2026-05-01 11:32 | 46.03634 | 1.14431 | 35263 ft | 454 kts | 203° |
| 2026-05-01 11:32 | 45.97718 | 1.11245 | 35262 ft | 455 kts | 203° |
| 2026-05-01 11:33 | 45.91791 | 1.08060 | 35261 ft | 454 kts | 202° |
| 2026-05-01 11:33 | 45.85874 | 1.04888 | 35267 ft | 454 kts | 202° |
| 2026-05-01 11:34 | 45.80221 | 1.00972 | 35261 ft | 450 kts | 216° |
| 2026-05-01 11:34 | 45.75377 | 0.95313 | 35255 ft | 449 kts | 221° |
| 2026-05-01 11:35 | 45.70606 | 0.89534 | 35233 ft | 449 kts | 221° |
| 2026-05-01 11:35 | 45.65827 | 0.83769 | 35234 ft | 450 kts | 221° |
| 2026-05-01 11:36 | 45.61029 | 0.78033 | 35234 ft | 450 kts | 220° |
| 2026-05-01 11:36 | 45.56220 | 0.72308 | 35223 ft | 450 kts | 220° |
| 2026-05-01 11:37 | 45.51433 | 0.66632 | 35229 ft | 450 kts | 220° |
| 2026-05-01 11:37 | 45.46578 | 0.60891 | 35225 ft | 451 kts | 220° |
| 2026-05-01 11:38 | 45.41752 | 0.55197 | 35219 ft | 451 kts | 220° |
| 2026-05-01 11:38 | 45.36953 | 0.49547 | 35211 ft | 451 kts | 220° |
| 2026-05-01 11:39 | 45.32119 | 0.43868 | 35214 ft | 451 kts | 220° |
| 2026-05-01 11:39 | 45.27285 | 0.38202 | 35217 ft | 450 kts | 219° |
| 2026-05-01 11:40 | 45.22450 | 0.32548 | 35208 ft | 450 kts | 219° |
| 2026-05-01 11:40 | 45.17608 | 0.26899 | 35209 ft | 450 kts | 219° |
| 2026-05-01 11:41 | 45.12769 | 0.21266 | 35209 ft | 450 kts | 219° |
| 2026-05-01 11:41 | 45.07931 | 0.15644 | 35209 ft | 450 kts | 219° |
| 2026-05-01 11:42 | 45.03096 | 0.10040 | 35202 ft | 450 kts | 219° |
| 2026-05-01 11:42 | 44.98251 | 0.04441 | 35197 ft | 450 kts | 219° |
| 2026-05-01 11:43 | 44.93409 | -0.01145 | 35214 ft | 450 kts | 219° |
| 2026-05-01 11:43 | 44.88557 | -0.06730 | 35199 ft | 450 kts | 219° |
| 2026-05-01 11:44 | 44.81309 | -0.15054 | 35197 ft | 450 kts | 219° |
| 2026-05-01 11:44 | 44.76451 | -0.20617 | 35197 ft | 450 kts | 219° |
| 2026-05-01 11:45 | 44.71578 | -0.26158 | 35193 ft | 450 kts | 218° |
| 2026-05-01 11:45 | 44.66714 | -0.31695 | 35192 ft | 450 kts | 218° |
| 2026-05-01 11:46 | 44.61505 | -0.36535 | 35201 ft | 450 kts | 208° |
| 2026-05-01 11:46 | 44.55947 | -0.40581 | 35197 ft | 450 kts | 207° |
| 2026-05-01 11:47 | 44.50365 | -0.44555 | 35195 ft | 450 kts | 207° |
| 2026-05-01 11:47 | 44.44803 | -0.48575 | 35190 ft | 450 kts | 207° |
| 2026-05-01 11:48 | 44.39247 | -0.52629 | 35186 ft | 450 kts | 207° |
| 2026-05-01 11:48 | 44.33700 | -0.56682 | 35186 ft | 450 kts | 207° |
| 2026-05-01 11:49 | 44.28145 | -0.60733 | 35195 ft | 450 kts | 207° |
| 2026-05-01 11:49 | 44.22594 | -0.64770 | 35187 ft | 450 kts | 207° |
| 2026-05-01 11:50 | 44.17073 | -0.68776 | 35198 ft | 450 kts | 207° |
| 2026-05-01 11:50 | 44.11521 | -0.72796 | 35200 ft | 450 kts | 207° |
| 2026-05-01 11:51 | 44.05961 | -0.76812 | 35199 ft | 450 kts | 207° |
| 2026-05-01 11:51 | 44.00405 | -0.80818 | 35206 ft | 450 kts | 208° |
| 2026-05-01 11:52 | 43.94845 | -0.84817 | 35195 ft | 450 kts | 208° |
| 2026-05-01 11:52 | 43.89277 | -0.88814 | 35201 ft | 450 kts | 208° |
| 2026-05-01 11:53 | 43.83713 | -0.92800 | 35188 ft | 450 kts | 208° |
| 2026-05-01 11:53 | 43.78145 | -0.96780 | 35180 ft | 450 kts | 208° |
| 2026-05-01 11:54 | 43.72579 | -1.00751 | 35188 ft | 450 kts | 208° |
| 2026-05-01 11:54 | 43.67009 | -1.04716 | 35184 ft | 450 kts | 208° |
| 2026-05-01 11:55 | 43.61436 | -1.08674 | 35184 ft | 451 kts | 208° |
| 2026-05-01 11:55 | 43.56800 | -1.11961 | 35169 ft | 451 kts | 208° |
| 2026-05-01 11:56 | 43.51220 | -1.15909 | 35163 ft | 451 kts | 208° |
| 2026-05-01 11:56 | 43.45632 | -1.19855 | 35161 ft | 451 kts | 208° |
| 2026-05-01 11:57 | 43.40040 | -1.23796 | 35153 ft | 452 kts | 208° |
| 2026-05-01 11:57 | 43.34445 | -1.27730 | 35158 ft | 452 kts | 208° |
| 2026-05-01 11:58 | 43.28850 | -1.31657 | 35160 ft | 452 kts | 208° |
| 2026-05-01 11:59 | 43.20452 | -1.37536 | 35151 ft | 452 kts | 208° |
| 2026-05-01 11:59 | 43.14851 | -1.41447 | 35156 ft | 452 kts | 208° |
| 2026-05-01 12:00 | 43.06444 | -1.47302 | 35165 ft | 452 kts | 208° |
| 2026-05-01 12:01 | 42.98042 | -1.53146 | 35162 ft | 451 kts | 208° |
| 2026-05-01 12:01 | 42.92449 | -1.57030 | 35166 ft | 451 kts | 208° |
| 2026-05-01 12:02 | 42.86860 | -1.60902 | 35188 ft | 451 kts | 208° |
| 2026-05-01 12:02 | 42.81270 | -1.64769 | 35183 ft | 451 kts | 208° |
| 2026-05-01 12:03 | 42.75676 | -1.68630 | 35181 ft | 450 kts | 208° |
| 2026-05-01 12:03 | 42.70072 | -1.72461 | 35189 ft | 450 kts | 207° |
| 2026-05-01 12:04 | 42.64449 | -1.76228 | 35180 ft | 451 kts | 207° |
| 2026-05-01 12:04 | 42.58823 | -1.79990 | 35171 ft | 451 kts | 207° |
| 2026-05-01 12:05 | 42.53199 | -1.83753 | 35177 ft | 450 kts | 207° |
| 2026-05-01 12:05 | 42.44804 | -1.89363 | 35166 ft | 450 kts | 207° |
| 2026-05-01 12:06 | 42.39180 | -1.93112 | 35164 ft | 451 kts | 208° |
| 2026-05-01 12:06 | 42.33550 | -1.96864 | 35161 ft | 452 kts | 208° |
| 2026-05-01 12:07 | 42.27912 | -2.00623 | 35161 ft | 452 kts | 208° |
| 2026-05-01 12:07 | 42.22264 | -2.04377 | 35164 ft | 453 kts | 207° |
| 2026-05-01 12:08 | 42.16610 | -2.08124 | 35154 ft | 453 kts | 207° |
| 2026-05-01 12:08 | 42.10940 | -2.11870 | 35155 ft | 454 kts | 207° |
| 2026-05-01 12:09 | 42.05260 | -2.15617 | 35157 ft | 454 kts | 207° |
| 2026-05-01 12:09 | 41.99575 | -2.19358 | 35158 ft | 455 kts | 208° |
| 2026-05-01 12:10 | 41.91028 | -2.24970 | 35162 ft | 456 kts | 207° |
| 2026-05-01 12:11 | 41.82444 | -2.30593 | 35143 ft | 459 kts | 208° |
| 2026-05-01 12:11 | 41.76724 | -2.34331 | 35165 ft | 461 kts | 208° |
| 2026-05-01 12:12 | 41.70940 | -2.38102 | 35153 ft | 463 kts | 208° |
| 2026-05-01 12:12 | 41.65138 | -2.41877 | 35150 ft | 464 kts | 208° |
| 2026-05-01 12:13 | 41.59328 | -2.45649 | 35151 ft | 465 kts | 208° |
| 2026-05-01 12:13 | 41.53512 | -2.49420 | 35128 ft | 465 kts | 208° |
| 2026-05-01 12:14 | 41.47687 | -2.53184 | 35152 ft | 465 kts | 208° |
| 2026-05-01 12:14 | 41.41863 | -2.56928 | 35144 ft | 465 kts | 208° |
| 2026-05-01 12:15 | 41.36020 | -2.60636 | 35144 ft | 466 kts | 205° |
| 2026-05-01 12:15 | 41.29694 | -2.62627 | 35142 ft | 472 kts | 187° |
| 2026-05-01 12:16 | 41.23102 | -2.62319 | 35153 ft | 475 kts | 178° |
| 2026-05-01 12:16 | 41.16511 | -2.61598 | 35148 ft | 475 kts | 178° |
| 2026-05-01 12:17 | 41.09915 | -2.60961 | 35135 ft | 475 kts | 179° |
| 2026-05-01 12:17 | 41.03330 | -2.60376 | 35151 ft | 474 kts | 179° |
| 2026-05-01 12:18 | 40.96786 | -2.59792 | 35155 ft | 474 kts | 179° |
| 2026-05-01 12:18 | 40.90206 | -2.59204 | 35155 ft | 474 kts | 179° |
| 2026-05-01 12:19 | 40.83626 | -2.58616 | 35157 ft | 473 kts | 179° |
| 2026-05-01 12:19 | 40.77063 | -2.58030 | 35156 ft | 473 kts | 179° |
| 2026-05-01 12:20 | 40.70506 | -2.57447 | 35158 ft | 472 kts | 179° |
| 2026-05-01 12:20 | 40.63951 | -2.56865 | 35161 ft | 472 kts | 179° |
| 2026-05-01 12:21 | 40.57404 | -2.56284 | 35156 ft | 472 kts | 179° |
| 2026-05-01 12:21 | 40.50854 | -2.55705 | 35158 ft | 472 kts | 179° |
| 2026-05-01 12:22 | 40.44313 | -2.55127 | 35158 ft | 471 kts | 179° |
| 2026-05-01 12:22 | 40.37831 | -2.54996 | 35157 ft | 466 kts | 190° |
| 2026-05-01 12:23 | 40.31627 | -2.57121 | 35176 ft | 460 kts | 204° |
| 2026-05-01 12:23 | 40.25672 | -2.60196 | 35162 ft | 460 kts | 204° |
| 2026-05-01 12:24 | 40.19719 | -2.63257 | 35159 ft | 460 kts | 204° |
| 2026-05-01 12:24 | 40.13750 | -2.66265 | 35162 ft | 459 kts | 203° |
| 2026-05-01 12:25 | 40.04827 | -2.70717 | 35170 ft | 457 kts | 203° |
| 2026-05-01 12:26 | 39.98891 | -2.73671 | 35160 ft | 456 kts | 203° |
| 2026-05-01 12:26 | 39.90014 | -2.78082 | 35166 ft | 454 kts | 203° |
| 2026-05-01 12:27 | 39.81156 | -2.82473 | 35170 ft | 454 kts | 204° |
| 2026-05-01 12:28 | 39.72600 | -2.87572 | 35164 ft | 452 kts | 208° |
| 2026-05-01 12:29 | 39.64113 | -2.92957 | 35157 ft | 453 kts | 208° |
| 2026-05-01 12:29 | 39.55587 | -2.98237 | 35152 ft | 453 kts | 208° |
| 2026-05-01 12:30 | 39.47048 | -3.03472 | 35156 ft | 453 kts | 208° |
| 2026-05-01 12:31 | 39.41349 | -3.06958 | 35145 ft | 453 kts | 208° |
| 2026-05-01 12:31 | 39.35656 | -3.10435 | 35143 ft | 453 kts | 208° |
| 2026-05-01 12:32 | 39.29958 | -3.13910 | 35129 ft | 453 kts | 208° |
| 2026-05-01 12:32 | 39.21412 | -3.19111 | 35145 ft | 453 kts | 208° |
| 2026-05-01 12:33 | 39.15702 | -3.22578 | 35142 ft | 454 kts | 208° |
| 2026-05-01 12:33 | 39.09991 | -3.26039 | 35142 ft | 454 kts | 208° |
| 2026-05-01 12:34 | 39.04269 | -3.29500 | 35131 ft | 454 kts | 209° |
| 2026-05-01 12:34 | 38.98539 | -3.32960 | 35136 ft | 455 kts | 209° |
| 2026-05-01 12:35 | 38.92812 | -3.36412 | 35134 ft | 455 kts | 208° |
| 2026-05-01 12:35 | 38.87070 | -3.39867 | 35134 ft | 455 kts | 208° |
| 2026-05-01 12:36 | 38.81330 | -3.43314 | 35122 ft | 456 kts | 209° |
| 2026-05-01 12:36 | 38.75588 | -3.46754 | 35132 ft | 455 kts | 210° |
| 2026-05-01 12:37 | 38.69851 | -3.50188 | 35140 ft | 455 kts | 210° |
| 2026-05-01 12:37 | 38.64110 | -3.53619 | 35131 ft | 455 kts | 210° |
| 2026-05-01 12:38 | 38.58365 | -3.57045 | 35116 ft | 456 kts | 211° |
| 2026-05-01 12:38 | 38.52620 | -3.60465 | 35131 ft | 456 kts | 210° |
| 2026-05-01 12:39 | 38.46908 | -3.63859 | 35135 ft | 456 kts | 210° |
| 2026-05-01 12:39 | 38.41159 | -3.67269 | 35126 ft | 456 kts | 210° |
| 2026-05-01 12:40 | 38.35408 | -3.70674 | 35122 ft | 456 kts | 211° |
| 2026-05-01 12:40 | 38.29661 | -3.74072 | 35120 ft | 456 kts | 210° |
| 2026-05-01 12:41 | 38.23910 | -3.77465 | 35126 ft | 456 kts | 210° |
| 2026-05-01 12:41 | 38.18156 | -3.80855 | 35120 ft | 456 kts | 210° |
| 2026-05-01 12:42 | 38.12400 | -3.84238 | 35103 ft | 455 kts | 212° |
| 2026-05-01 12:42 | 38.06665 | -3.87603 | 35120 ft | 454 kts | 212° |
| 2026-05-01 12:43 | 38.00936 | -3.90960 | 35117 ft | 453 kts | 212° |
| 2026-05-01 12:43 | 37.95211 | -3.94310 | 35119 ft | 453 kts | 212° |
| 2026-05-01 12:44 | 37.89492 | -3.97650 | 35114 ft | 453 kts | 212° |
| 2026-05-01 12:45 | 37.78061 | -4.04308 | 35112 ft | 452 kts | 213° |
| 2026-05-01 12:45 | 37.73312 | -4.07067 | 35119 ft | 452 kts | 212° |
| 2026-05-01 12:46 | 37.67598 | -4.10382 | 35119 ft | 452 kts | 212° |
| 2026-05-01 12:46 | 37.61881 | -4.13693 | 35099 ft | 452 kts | 213° |
| 2026-05-01 12:47 | 37.55243 | -4.17530 | 35109 ft | 451 kts | 213° |
| 2026-05-01 12:47 | 37.50464 | -4.20286 | 35119 ft | 450 kts | 213° |
| 2026-05-01 12:48 | 37.44764 | -4.23569 | 35117 ft | 451 kts | 213° |
| 2026-05-01 12:48 | 37.39051 | -4.26860 | 35100 ft | 452 kts | 213° |
| 2026-05-01 12:49 | 37.33326 | -4.30148 | 35117 ft | 452 kts | 213° |
| 2026-05-01 12:49 | 37.27643 | -4.33404 | 35121 ft | 452 kts | 213° |
| 2026-05-01 12:50 | 37.21921 | -4.36681 | 35133 ft | 452 kts | 213° |
| 2026-05-01 12:50 | 37.16200 | -4.39949 | 35130 ft | 452 kts | 213° |
| 2026-05-01 12:51 | 37.10476 | -4.43213 | 35124 ft | 451 kts | 213° |
| 2026-05-01 12:52 | 37.01908 | -4.48090 | 35145 ft | 451 kts | 213° |
| 2026-05-01 12:52 | 36.93342 | -4.52955 | 35156 ft | 450 kts | 213° |
| 2026-05-01 12:53 | 36.84787 | -4.57800 | 35141 ft | 450 kts | 213° |
| 2026-05-01 12:54 | 36.79100 | -4.61015 | 35154 ft | 448 kts | 213° |
| 2026-05-01 12:54 | 36.70585 | -4.65819 | 35156 ft | 447 kts | 213° |
| 2026-05-01 12:55 | 36.62081 | -4.70605 | 35148 ft | 447 kts | 213° |
| 2026-05-01 12:56 | 36.56424 | -4.73785 | 35155 ft | 446 kts | 213° |
| 2026-05-01 12:56 | 36.50770 | -4.76953 | 35150 ft | 446 kts | 213° |
| 2026-05-01 12:57 | 36.45152 | -4.80096 | 35160 ft | 446 kts | 213° |
| 2026-05-01 12:57 | 36.36666 | -4.84839 | 35151 ft | 446 kts | 212° |
| 2026-05-01 12:58 | 36.31005 | -4.87995 | 35161 ft | 446 kts | 212° |
| 2026-05-01 12:59 | 36.22506 | -4.92725 | 35168 ft | 447 kts | 212° |
| 2026-05-01 12:59 | 36.14002 | -4.97445 | 35130 ft | 447 kts | 212° |
| 2026-05-01 13:00 | 36.05498 | -5.02156 | 35163 ft | 447 kts | 212° |
| 2026-05-01 13:01 | 35.96984 | -5.06860 | 35161 ft | 447 kts | 212° |
| 2026-05-01 13:02 | 35.88462 | -5.11559 | 35160 ft | 447 kts | 212° |
| 2026-05-01 13:07 | 35.36938 | -5.56905 | 35117 ft | 434 kts | 223° |
| 2026-05-01 13:07 | 35.34515 | -5.59103 | 35135 ft | 434 kts | 223° |
| 2026-05-01 13:08 | 35.29662 | -5.63512 | 35130 ft | 435 kts | 223° |
| 2026-05-01 13:08 | 35.24808 | -5.67927 | 35131 ft | 435 kts | 223° |
| 2026-05-01 13:09 | 35.19945 | -5.72336 | 35122 ft | 435 kts | 222° |
| 2026-05-01 13:09 | 35.15086 | -5.76732 | 35125 ft | 435 kts | 223° |
| 2026-05-01 13:10 | 35.09896 | -5.80632 | 35118 ft | 442 kts | 214° |
| 2026-05-01 13:10 | 35.04439 | -5.84092 | 35128 ft | 442 kts | 213° |
| 2026-05-01 13:11 | 34.98968 | -5.87557 | 35136 ft | 443 kts | 214° |
| 2026-05-01 13:11 | 34.93505 | -5.91040 | 35133 ft | 443 kts | 214° |
| 2026-05-01 13:12 | 34.88042 | -5.94532 | 35126 ft | 443 kts | 214° |
| 2026-05-01 13:12 | 34.82580 | -5.98023 | 35116 ft | 443 kts | 214° |
| 2026-05-01 13:13 | 34.77123 | -6.01504 | 35123 ft | 443 kts | 214° |
| 2026-05-01 13:13 | 34.71703 | -6.04956 | 35127 ft | 443 kts | 214° |
| 2026-05-01 13:14 | 34.66250 | -6.08425 | 35118 ft | 442 kts | 214° |
| 2026-05-01 13:14 | 34.60800 | -6.11885 | 35121 ft | 442 kts | 213° |
| 2026-05-01 13:15 | 34.55355 | -6.15338 | 35119 ft | 441 kts | 213° |
| 2026-05-01 13:15 | 34.49919 | -6.18779 | 35122 ft | 440 kts | 213° |
| 2026-05-01 13:16 | 34.44487 | -6.22214 | 35119 ft | 440 kts | 213° |
| 2026-05-01 13:16 | 34.39053 | -6.25644 | 35121 ft | 440 kts | 213° |
| 2026-05-01 13:17 | 34.28181 | -6.32493 | 35120 ft | 441 kts | 213° |
| 2026-05-01 13:18 | 34.20018 | -6.37622 | 35114 ft | 441 kts | 213° |
| 2026-05-01 13:18 | 34.14571 | -6.41038 | 35120 ft | 441 kts | 213° |
| 2026-05-01 13:19 | 34.09158 | -6.44427 | 35115 ft | 441 kts | 213° |
| 2026-05-01 13:20 | 34.00982 | -6.49538 | 35105 ft | 441 kts | 212° |
| 2026-05-01 13:20 | 33.95538 | -6.52934 | 35114 ft | 441 kts | 212° |
| 2026-05-01 13:21 | 33.87367 | -6.58024 | 35107 ft | 441 kts | 212° |
| 2026-05-01 13:21 | 33.81918 | -6.61410 | 35108 ft | 440 kts | 212° |
| 2026-05-01 13:22 | 33.76471 | -6.64792 | 35089 ft | 441 kts | 213° |
| 2026-05-01 13:22 | 33.71024 | -6.68168 | 35102 ft | 441 kts | 213° |
| 2026-05-01 13:23 | 33.65572 | -6.71543 | 35103 ft | 441 kts | 213° |
| 2026-05-01 13:23 | 33.60120 | -6.74912 | 35102 ft | 441 kts | 213° |
| 2026-05-01 13:24 | 33.54660 | -6.78282 | 35107 ft | 441 kts | 213° |
| 2026-05-01 13:25 | 33.46475 | -6.83326 | 35091 ft | 441 kts | 212° |
| 2026-05-01 13:25 | 33.41020 | -6.86680 | 35092 ft | 441 kts | 212° |
| 2026-05-01 13:26 | 33.35604 | -6.90007 | 35099 ft | 440 kts | 212° |
| 2026-05-01 13:26 | 33.30154 | -6.93350 | 35104 ft | 440 kts | 212° |
| 2026-05-01 13:27 | 33.24703 | -6.96688 | 35099 ft | 440 kts | 212° |
| 2026-05-01 13:27 | 33.16535 | -7.01681 | 35101 ft | 440 kts | 212° |
| 2026-05-01 13:28 | 33.08366 | -7.06666 | 35087 ft | 440 kts | 212° |
| 2026-05-01 13:29 | 32.97474 | -7.13293 | 35090 ft | 440 kts | 212° |
| 2026-05-01 13:31 | 32.81120 | -7.23211 | 35081 ft | 440 kts | 212° |
| 2026-05-01 13:32 | 32.67469 | -7.31458 | 35058 ft | 440 kts | 212° |
| 2026-05-01 13:33 | 32.59326 | -7.36359 | 35058 ft | 424 kts | 212° |
| 2026-05-01 13:33 | 32.54630 | -7.40017 | 34940 ft | 386 kts | 229° |
| 2026-05-01 13:34 | 32.51309 | -7.44766 | 34383 ft | 369 kts | 241° |
| 2026-05-01 13:34 | 32.48647 | -7.49964 | 33349 ft | 369 kts | 241° |
| 2026-05-01 13:35 | 32.46004 | -7.55125 | 32544 ft | 364 kts | 241° |
| 2026-05-01 13:35 | 32.44693 | -7.57674 | 32129 ft | 362 kts | 241° |
| 2026-05-01 13:35 | 32.42086 | -7.62739 | 31314 ft | 359 kts | 241° |
| 2026-05-01 13:36 | 32.41228 | -7.64405 | 31056 ft | 357 kts | 241° |
| 2026-05-01 13:36 | 32.39938 | -7.66910 | 30674 ft | 356 kts | 241° |
| 2026-05-01 13:36 | 32.37366 | -7.71883 | 29811 ft | 354 kts | 241° |
| 2026-05-01 13:37 | 32.36084 | -7.74358 | 29369 ft | 352 kts | 241° |
| 2026-05-01 13:37 | 32.34809 | -7.76815 | 28958 ft | 349 kts | 241° |
| 2026-05-01 13:37 | 32.33546 | -7.79247 | 28564 ft | 346 kts | 241° |
| 2026-05-01 13:37 | 32.32290 | -7.81664 | 28165 ft | 344 kts | 241° |
| 2026-05-01 13:38 | 32.29804 | -7.86446 | 27389 ft | 339 kts | 241° |
| 2026-05-01 13:38 | 32.28573 | -7.88812 | 27011 ft | 337 kts | 241° |
| 2026-05-01 13:38 | 32.27349 | -7.91162 | 26636 ft | 335 kts | 241° |
| 2026-05-01 13:39 | 32.26134 | -7.93495 | 26271 ft | 333 kts | 241° |
| 2026-05-01 13:39 | 32.24924 | -7.95815 | 25911 ft | 330 kts | 241° |
| 2026-05-01 13:39 | 32.23722 | -7.98119 | 25564 ft | 328 kts | 241° |
| 2026-05-01 13:39 | 32.22527 | -8.00409 | 25217 ft | 326 kts | 241° |
| 2026-05-01 13:40 | 32.21338 | -8.02684 | 24863 ft | 325 kts | 241° |
| 2026-05-01 13:40 | 32.20157 | -8.04946 | 24527 ft | 323 kts | 241° |
| 2026-05-01 13:40 | 32.18981 | -8.07194 | 24185 ft | 321 kts | 241° |
| 2026-05-01 13:40 | 32.17812 | -8.09430 | 23841 ft | 319 kts | 241° |
| 2026-05-01 13:41 | 32.16649 | -8.11653 | 23511 ft | 317 kts | 241° |
| 2026-05-01 13:41 | 32.15500 | -8.13846 | 23322 ft | 309 kts | 241° |
| 2026-05-01 13:41 | 32.14387 | -8.15966 | 23251 ft | 299 kts | 241° |
| 2026-05-01 13:41 | 32.13307 | -8.18024 | 23082 ft | 291 kts | 242° |
| 2026-05-01 13:42 | 32.12262 | -8.20000 | 22894 ft | 285 kts | 238° |
| 2026-05-01 13:42 | 32.10850 | -8.21639 | 22622 ft | 290 kts | 218° |
| 2026-05-01 13:42 | 32.08996 | -8.22617 | 22274 ft | 298 kts | 200° |
| 2026-05-01 13:42 | 32.06982 | -8.23195 | 21934 ft | 297 kts | 200° |
| 2026-05-01 13:43 | 32.04974 | -8.23772 | 21617 ft | 297 kts | 200° |
| 2026-05-01 13:43 | 32.02972 | -8.24348 | 21299 ft | 296 kts | 200° |
| 2026-05-01 13:43 | 32.00980 | -8.24921 | 20998 ft | 294 kts | 199° |
| 2026-05-01 13:43 | 31.98997 | -8.25489 | 20699 ft | 293 kts | 199° |
| 2026-05-01 13:44 | 31.97024 | -8.26065 | 20392 ft | 291 kts | 201° |
| 2026-05-01 13:44 | 31.95156 | -8.26895 | 20081 ft | 284 kts | 213° |
| 2026-05-01 13:44 | 31.93512 | -8.28145 | 19786 ft | 279 kts | 223° |
| 2026-05-01 13:44 | 31.92048 | -8.29625 | 19515 ft | 276 kts | 226° |
| 2026-05-01 13:45 | 31.90647 | -8.31163 | 19223 ft | 275 kts | 227° |
| 2026-05-01 13:45 | 31.89249 | -8.32703 | 18929 ft | 275 kts | 226° |
| 2026-05-01 13:45 | 31.87860 | -8.34248 | 18652 ft | 274 kts | 227° |
| 2026-05-01 13:45 | 31.86517 | -8.35820 | 18432 ft | 271 kts | 229° |
| 2026-05-01 13:46 | 31.85248 | -8.37436 | 18137 ft | 269 kts | 231° |
| 2026-05-01 13:46 | 31.83911 | -8.38974 | 17823 ft | 271 kts | 218° |
| 2026-05-01 13:46 | 31.82208 | -8.40027 | 17114 ft | 284 kts | 208° |
| 2026-05-01 13:46 | 31.80373 | -8.40958 | 16365 ft | 289 kts | 207° |
| 2026-05-01 13:47 | 31.78526 | -8.41886 | 15595 ft | 289 kts | 206° |
| 2026-05-01 13:47 | 31.76689 | -8.42822 | 14846 ft | 288 kts | 206° |
| 2026-05-01 13:47 | 31.74859 | -8.43769 | 14098 ft | 286 kts | 206° |
| 2026-05-01 13:47 | 31.73044 | -8.44720 | 13307 ft | 285 kts | 206° |
| 2026-05-01 13:48 | 31.71240 | -8.45669 | 12496 ft | 283 kts | 206° |
| 2026-05-01 13:48 | 31.69446 | -8.46614 | 11712 ft | 281 kts | 205° |
| 2026-05-01 13:48 | 31.67641 | -8.47452 | 10927 ft | 279 kts | 193° |
| 2026-05-01 13:48 | 31.65723 | -8.47294 | 10191 ft | 281 kts | 161° |
| 2026-05-01 13:49 | 31.64175 | -8.45927 | 9457 ft | 284 kts | 129° |
| 2026-05-01 13:49 | 31.63482 | -8.43779 | 8718 ft | 286 kts | 97° |
| 2026-05-01 13:49 | 31.63595 | -8.41466 | 7999 ft | 282 kts | 86° |
| 2026-05-01 13:49 | 31.63698 | -8.39186 | 7306 ft | 278 kts | 90° |
| 2026-05-01 13:50 | 31.63666 | -8.36967 | 6893 ft | 264 kts | 94° |
| 2026-05-01 13:50 | 31.63523 | -8.34872 | 6535 ft | 251 kts | 96° |
| 2026-05-01 13:50 | 31.63343 | -8.32877 | 6115 ft | 242 kts | 96° |
| 2026-05-01 13:50 | 31.63165 | -8.30973 | 5798 ft | 228 kts | 96° |
| 2026-05-01 13:51 | 31.63001 | -8.29194 | 5504 ft | 216 kts | 95° |
| 2026-05-01 13:51 | 31.62841 | -8.27480 | 5227 ft | 207 kts | 95° |
| 2026-05-01 13:51 | 31.62691 | -8.25820 | 4972 ft | 204 kts | 96° |
| 2026-05-01 13:51 | 31.62540 | -8.24182 | 4684 ft | 200 kts | 95° |
| 2026-05-01 13:52 | 31.62393 | -8.22586 | 4443 ft | 195 kts | 95° |
| 2026-05-01 13:52 | 31.62250 | -8.21006 | 4187 ft | 194 kts | 95° |
| 2026-05-01 13:52 | 31.62107 | -8.19437 | 3907 ft | 192 kts | 94° |
| 2026-05-01 13:52 | 31.61918 | -8.17905 | 3692 ft | 188 kts | 95° |
| 2026-05-01 13:53 | 31.61816 | -8.16365 | 3442 ft | 190 kts | 92° |
| 2026-05-01 13:53 | 31.61558 | -8.13309 | 2953 ft | 187 kts | 95° |
| 2026-05-01 13:53 | 31.61414 | -8.11779 | 2669 ft | 186 kts | 95° |
| 2026-05-01 13:54 | 31.61284 | -8.10346 | 2437 ft | 169 kts | 94° |
| 2026-05-01 13:54 | 31.61166 | -8.09033 | 2263 ft | 154 kts | 94° |
| 2026-05-01 13:54 | 31.61053 | -8.07769 | 2014 ft | 155 kts | 95° |
| 2026-05-01 13:54 | 31.60939 | -8.06519 | 1813 ft | 154 kts | 93° |
| 2026-05-01 13:55 | 31.60845 | -8.05291 | 1581 ft | 150 kts | 96° |
| 2026-05-01 13:55 | 31.60749 | -8.04229 | 1539 ft | 108 kts | 96° |
| 2026-05-01 13:55 | 31.60691 | -8.03550 | 1535 ft | 71 kts | 95° |
| 2026-05-01 13:55 | 31.60576 | -8.03152 | 1540 ft | 40 kts | 125° |
| 2026-05-01 13:56 | 31.60459 | -8.02942 | 1538 ft | 24 kts | 111° |